sensor_id;sensor_type;location;lat;lon;timestamp;P1;durP1;ratioP1;P2;durP2;ratioP2
7213;SDS011;3648;50.614;13.830;2023-06-22T00:02:07;5.93;;;4.23;;
7213;SDS011;3648;50.614;13.830;2023-06-22T00:04:34;5.73;;;5.13;;
7213;SDS011;3648;50.614;13.830;2023-06-22T00:07:02;6.37;;;4.90;;
7213;SDS011;3648;50.614;13.830;2023-06-22T00:09:29;5.37;;;4.47;;
7213;SDS011;3648;50.614;13.830;2023-06-22T00:11:57;5.90;;;4.70;;
7213;SDS011;3648;50.614;13.830;2023-06-22T00:14:24;6.10;;;5.50;;
7213;SDS011;3648;50.614;13.830;2023-06-22T00:16:51;5.50;;;5.00;;
7213;SDS011;3648;50.614;13.830;2023-06-22T00:19:19;5.13;;;4.67;;
7213;SDS011;3648;50.614;13.830;2023-06-22T00:21:46;5.67;;;5.10;;
7213;SDS011;3648;50.614;13.830;2023-06-22T00:24:19;6.07;;;4.83;;
7213;SDS011;3648;50.614;13.830;2023-06-22T00:26:46;5.87;;;5.33;;
7213;SDS011;3648;50.614;13.830;2023-06-22T00:29:13;6.70;;;5.70;;
7213;SDS011;3648;50.614;13.830;2023-06-22T00:31:40;5.70;;;5.17;;
7213;SDS011;3648;50.614;13.830;2023-06-22T00:34:07;4.90;;;4.40;;
7213;SDS011;3648;50.614;13.830;2023-06-22T00:36:35;5.63;;;5.10;;
7213;SDS011;3648;50.614;13.830;2023-06-22T00:39:02;5.80;;;5.00;;
7213;SDS011;3648;50.614;13.830;2023-06-22T00:41:32;5.40;;;4.90;;
7213;SDS011;3648;50.614;13.830;2023-06-22T00:43:59;5.97;;;5.37;;
7213;SDS011;3648;50.614;13.830;2023-06-22T00:46:26;5.30;;;4.80;;
7213;SDS011;3648;50.614;13.830;2023-06-22T00:48:53;5.93;;;5.27;;
7213;SDS011;3648;50.614;13.830;2023-06-22T00:51:22;10.93;;;5.77;;
7213;SDS011;3648;50.614;13.830;2023-06-22T00:53:49;5.87;;;5.27;;
7213;SDS011;3648;50.614;13.830;2023-06-22T00:56:16;5.70;;;5.20;;
7213;SDS011;3648;50.614;13.830;2023-06-22T00:58:46;6.03;;;5.43;;
7213;SDS011;3648;50.614;13.830;2023-06-22T01:01:13;5.70;;;5.13;;
7213;SDS011;3648;50.614;13.830;2023-06-22T01:03:40;5.30;;;4.77;;
7213;SDS011;3648;50.614;13.830;2023-06-22T01:06:08;5.97;;;5.40;;
7213;SDS011;3648;50.614;13.830;2023-06-22T01:08:42;5.60;;;5.00;;
7213;SDS011;3648;50.614;13.830;2023-06-22T01:11:16;6.13;;;5.53;;
7213;SDS011;3648;50.614;13.830;2023-06-22T01:13:50;5.07;;;4.57;;
7213;SDS011;3648;50.614;13.830;2023-06-22T01:16:24;6.90;;;5.70;;
7213;SDS011;3648;50.614;13.830;2023-06-22T01:18:54;6.07;;;5.50;;
7213;SDS011;3648;50.614;13.830;2023-06-22T01:21:24;5.73;;;5.23;;
7213;SDS011;3648;50.614;13.830;2023-06-22T01:23:56;5.83;;;5.23;;
7213;SDS011;3648;50.614;13.830;2023-06-22T01:26:37;5.23;;;4.73;;
7213;SDS011;3648;50.614;13.830;2023-06-22T01:29:10;5.53;;;5.03;;
7213;SDS011;3648;50.614;13.830;2023-06-22T01:31:39;6.20;;;5.30;;
7213;SDS011;3648;50.614;13.830;2023-06-22T01:34:07;5.63;;;5.03;;
7213;SDS011;3648;50.614;13.830;2023-06-22T01:36:36;6.40;;;5.20;;
7213;SDS011;3648;50.614;13.830;2023-06-22T01:39:04;6.60;;;5.97;;
7213;SDS011;3648;50.614;13.830;2023-06-22T01:41:33;7.30;;;5.70;;
7213;SDS011;3648;50.614;13.830;2023-06-22T01:44:02;6.10;;;5.50;;
7213;SDS011;3648;50.614;13.830;2023-06-22T01:46:32;6.07;;;4.77;;
7213;SDS011;3648;50.614;13.830;2023-06-22T01:49:00;7.83;;;4.73;;
7213;SDS011;3648;50.614;13.830;2023-06-22T01:51:28;5.77;;;5.27;;
7213;SDS011;3648;50.614;13.830;2023-06-22T01:53:55;6.07;;;5.47;;
7213;SDS011;3648;50.614;13.830;2023-06-22T01:56:22;6.17;;;5.43;;
7213;SDS011;3648;50.614;13.830;2023-06-22T01:58:50;6.83;;;6.23;;
7213;SDS011;3648;50.614;13.830;2023-06-22T02:01:24;6.47;;;5.17;;
7213;SDS011;3648;50.614;13.830;2023-06-22T02:03:57;5.37;;;4.87;;
7213;SDS011;3648;50.614;13.830;2023-06-22T02:06:30;6.03;;;5.43;;
7213;SDS011;3648;50.614;13.830;2023-06-22T02:09:02;5.83;;;4.83;;
7213;SDS011;3648;50.614;13.830;2023-06-22T02:11:35;6.00;;;5.47;;
7213;SDS011;3648;50.614;13.830;2023-06-22T02:14:03;4.93;;;4.43;;
7213;SDS011;3648;50.614;13.830;2023-06-22T02:16:33;5.63;;;5.03;;
7213;SDS011;3648;50.614;13.830;2023-06-22T02:19:04;5.50;;;5.00;;
7213;SDS011;3648;50.614;13.830;2023-06-22T02:21:31;5.00;;;4.60;;
7213;SDS011;3648;50.614;13.830;2023-06-22T02:23:58;5.10;;;4.53;;
7213;SDS011;3648;50.614;13.830;2023-06-22T02:26:25;6.47;;;5.00;;
7213;SDS011;3648;50.614;13.830;2023-06-22T02:28:53;4.77;;;4.27;;
7213;SDS011;3648;50.614;13.830;2023-06-22T02:31:20;5.30;;;4.80;;
7213;SDS011;3648;50.614;13.830;2023-06-22T02:33:47;5.60;;;5.10;;
7213;SDS011;3648;50.614;13.830;2023-06-22T02:36:16;5.40;;;4.90;;
7213;SDS011;3648;50.614;13.830;2023-06-22T02:38:47;5.50;;;4.93;;
7213;SDS011;3648;50.614;13.830;2023-06-22T02:41:14;4.97;;;4.40;;
7213;SDS011;3648;50.614;13.830;2023-06-22T02:43:43;5.00;;;4.43;;
7213;SDS011;3648;50.614;13.830;2023-06-22T02:46:11;5.47;;;4.70;;
7213;SDS011;3648;50.614;13.830;2023-06-22T02:48:38;5.90;;;5.30;;
7213;SDS011;3648;50.614;13.830;2023-06-22T02:51:05;6.27;;;5.67;;
7213;SDS011;3648;50.614;13.830;2023-06-22T02:53:34;5.70;;;5.20;;
7213;SDS011;3648;50.614;13.830;2023-06-22T02:56:01;6.03;;;5.43;;
7213;SDS011;3648;50.614;13.830;2023-06-22T02:58:30;5.97;;;5.37;;
7213;SDS011;3648;50.614;13.830;2023-06-22T03:01:03;6.23;;;5.63;;
7213;SDS011;3648;50.614;13.830;2023-06-22T03:03:30;6.53;;;5.57;;
7213;SDS011;3648;50.614;13.830;2023-06-22T03:05:57;6.40;;;5.70;;
7213;SDS011;3648;50.614;13.830;2023-06-22T03:08:26;5.90;;;5.37;;
7213;SDS011;3648;50.614;13.830;2023-06-22T03:10:55;6.00;;;5.40;;
7213;SDS011;3648;50.614;13.830;2023-06-22T03:13:22;5.83;;;5.30;;
7213;SDS011;3648;50.614;13.830;2023-06-22T03:15:49;5.70;;;5.07;;
7213;SDS011;3648;50.614;13.830;2023-06-22T03:18:16;5.87;;;5.27;;
7213;SDS011;3648;50.614;13.830;2023-06-22T03:20:43;5.43;;;4.90;;
7213;SDS011;3648;50.614;13.830;2023-06-22T03:23:09;6.77;;;5.40;;
7213;SDS011;3648;50.614;13.830;2023-06-22T03:25:36;6.33;;;5.73;;
7213;SDS011;3648;50.614;13.830;2023-06-22T03:28:05;7.30;;;5.83;;
7213;SDS011;3648;50.614;13.830;2023-06-22T03:30:32;6.73;;;5.87;;
7213;SDS011;3648;50.614;13.830;2023-06-22T03:32:59;7.27;;;6.17;;
7213;SDS011;3648;50.614;13.830;2023-06-22T03:35:26;6.20;;;5.57;;
7213;SDS011;3648;50.614;13.830;2023-06-22T03:37:53;6.87;;;6.13;;
7213;SDS011;3648;50.614;13.830;2023-06-22T03:40:20;7.00;;;6.30;;
7213;SDS011;3648;50.614;13.830;2023-06-22T03:42:47;5.97;;;5.37;;
7213;SDS011;3648;50.614;13.830;2023-06-22T03:45:15;6.40;;;5.80;;
7213;SDS011;3648;50.614;13.830;2023-06-22T03:47:42;5.90;;;5.27;;
7213;SDS011;3648;50.614;13.830;2023-06-22T03:50:09;5.97;;;5.37;;
7213;SDS011;3648;50.614;13.830;2023-06-22T03:52:36;6.80;;;6.10;;
7213;SDS011;3648;50.614;13.830;2023-06-22T03:55:03;6.13;;;5.53;;
7213;SDS011;3648;50.614;13.830;2023-06-22T03:57:31;6.10;;;5.50;;
7213;SDS011;3648;50.614;13.830;2023-06-22T03:59:58;6.50;;;5.83;;
7213;SDS011;3648;50.614;13.830;2023-06-22T04:02:27;6.00;;;5.50;;
7213;SDS011;3648;50.614;13.830;2023-06-22T04:04:54;5.67;;;5.10;;
7213;SDS011;3648;50.614;13.830;2023-06-22T04:07:20;5.43;;;4.93;;
7213;SDS011;3648;50.614;13.830;2023-06-22T04:09:47;6.13;;;5.47;;
7213;SDS011;3648;50.614;13.830;2023-06-22T04:12:14;5.70;;;5.10;;
7213;SDS011;3648;50.614;13.830;2023-06-22T04:14:41;6.53;;;5.70;;
7213;SDS011;3648;50.614;13.830;2023-06-22T04:17:08;5.90;;;5.30;;
7213;SDS011;3648;50.614;13.830;2023-06-22T04:19:36;8.13;;;5.47;;
7213;SDS011;3648;50.614;13.830;2023-06-22T04:22:03;5.93;;;5.43;;
7213;SDS011;3648;50.614;13.830;2023-06-22T04:24:32;6.73;;;6.07;;
7213;SDS011;3648;50.614;13.830;2023-06-22T04:26:59;6.90;;;6.20;;
7213;SDS011;3648;50.614;13.830;2023-06-22T04:29:27;7.33;;;6.40;;
7213;SDS011;3648;50.614;13.830;2023-06-22T04:31:55;7.63;;;6.10;;
7213;SDS011;3648;50.614;13.830;2023-06-22T04:34:23;6.33;;;5.73;;
7213;SDS011;3648;50.614;13.830;2023-06-22T04:36:52;6.43;;;5.80;;
7213;SDS011;3648;50.614;13.830;2023-06-22T04:39:19;6.20;;;5.60;;
7213;SDS011;3648;50.614;13.830;2023-06-22T04:41:47;6.37;;;5.40;;
7213;SDS011;3648;50.614;13.830;2023-06-22T04:44:15;6.23;;;5.63;;
7213;SDS011;3648;50.614;13.830;2023-06-22T04:46:49;7.13;;;6.43;;
7213;SDS011;3648;50.614;13.830;2023-06-22T04:49:19;8.77;;;6.23;;
7213;SDS011;3648;50.614;13.830;2023-06-22T04:51:47;6.87;;;6.17;;
7213;SDS011;3648;50.614;13.830;2023-06-22T04:54:18;7.27;;;6.57;;
7213;SDS011;3648;50.614;13.830;2023-06-22T04:56:45;7.10;;;6.40;;
7213;SDS011;3648;50.614;13.830;2023-06-22T04:59:13;7.13;;;6.43;;
7213;SDS011;3648;50.614;13.830;2023-06-22T05:01:43;7.57;;;6.77;;
7213;SDS011;3648;50.614;13.830;2023-06-22T05:04:10;7.70;;;6.30;;
7213;SDS011;3648;50.614;13.830;2023-06-22T05:06:37;6.60;;;6.00;;
7213;SDS011;3648;50.614;13.830;2023-06-22T05:09:04;6.80;;;6.20;;
7213;SDS011;3648;50.614;13.830;2023-06-22T05:11:33;8.40;;;6.70;;
7213;SDS011;3648;50.614;13.830;2023-06-22T05:14:00;7.97;;;6.93;;
7213;SDS011;3648;50.614;13.830;2023-06-22T05:16:27;8.27;;;7.50;;
7213;SDS011;3648;50.614;13.830;2023-06-22T05:18:54;7.63;;;6.93;;
7213;SDS011;3648;50.614;13.830;2023-06-22T05:21:21;7.60;;;6.80;;
7213;SDS011;3648;50.614;13.830;2023-06-22T05:23:49;7.47;;;6.77;;
7213;SDS011;3648;50.614;13.830;2023-06-22T05:26:16;9.03;;;6.60;;
7213;SDS011;3648;50.614;13.830;2023-06-22T05:28:45;6.37;;;5.77;;
7213;SDS011;3648;50.614;13.830;2023-06-22T05:31:13;7.37;;;6.53;;
7213;SDS011;3648;50.614;13.830;2023-06-22T05:33:40;7.60;;;6.63;;
7213;SDS011;3648;50.614;13.830;2023-06-22T05:36:07;6.80;;;6.20;;
7213;SDS011;3648;50.614;13.830;2023-06-22T05:38:35;6.70;;;6.10;;
7213;SDS011;3648;50.614;13.830;2023-06-22T05:41:02;7.10;;;6.40;;
7213;SDS011;3648;50.614;13.830;2023-06-22T05:43:29;7.27;;;6.50;;
7213;SDS011;3648;50.614;13.830;2023-06-22T05:45:58;8.00;;;7.20;;
7213;SDS011;3648;50.614;13.830;2023-06-22T05:48:25;8.30;;;7.53;;
7213;SDS011;3648;50.614;13.830;2023-06-22T05:50:52;7.97;;;6.93;;
7213;SDS011;3648;50.614;13.830;2023-06-22T05:53:19;8.73;;;7.80;;
7213;SDS011;3648;50.614;13.830;2023-06-22T05:55:46;7.27;;;6.57;;
7213;SDS011;3648;50.614;13.830;2023-06-22T05:58:13;7.53;;;6.83;;
7213;SDS011;3648;50.614;13.830;2023-06-22T06:00:41;7.30;;;6.60;;
7213;SDS011;3648;50.614;13.830;2023-06-22T06:03:10;7.40;;;6.70;;
7213;SDS011;3648;50.614;13.830;2023-06-22T06:05:37;8.13;;;7.30;;
7213;SDS011;3648;50.614;13.830;2023-06-22T06:08:04;6.63;;;6.00;;
7213;SDS011;3648;50.614;13.830;2023-06-22T06:10:32;7.60;;;6.80;;
7213;SDS011;3648;50.614;13.830;2023-06-22T06:12:59;7.33;;;6.63;;
7213;SDS011;3648;50.614;13.830;2023-06-22T06:15:29;7.03;;;6.33;;
7213;SDS011;3648;50.614;13.830;2023-06-22T06:17:56;7.87;;;7.07;;
7213;SDS011;3648;50.614;13.830;2023-06-22T06:20:24;7.27;;;6.57;;
7213;SDS011;3648;50.614;13.830;2023-06-22T06:22:53;7.47;;;6.70;;
7213;SDS011;3648;50.614;13.830;2023-06-22T06:25:20;7.53;;;6.77;;
7213;SDS011;3648;50.614;13.830;2023-06-22T06:27:47;7.43;;;6.73;;
7213;SDS011;3648;50.614;13.830;2023-06-22T06:30:16;8.10;;;7.30;;
7213;SDS011;3648;50.614;13.830;2023-06-22T06:32:45;8.73;;;7.93;;
7213;SDS011;3648;50.614;13.830;2023-06-22T06:35:13;9.07;;;7.00;;
7213;SDS011;3648;50.614;13.830;2023-06-22T06:37:43;9.00;;;8.10;;
7213;SDS011;3648;50.614;13.830;2023-06-22T06:40:11;9.50;;;8.17;;
7213;SDS011;3648;50.614;13.830;2023-06-22T06:42:40;8.77;;;7.97;;
7213;SDS011;3648;50.614;13.830;2023-06-22T06:45:09;8.93;;;8.03;;
7213;SDS011;3648;50.614;13.830;2023-06-22T06:47:37;9.13;;;8.23;;
7213;SDS011;3648;50.614;13.830;2023-06-22T06:50:04;8.40;;;7.57;;
7213;SDS011;3648;50.614;13.830;2023-06-22T06:52:32;8.20;;;7.40;;
7213;SDS011;3648;50.614;13.830;2023-06-22T06:55:00;8.37;;;7.40;;
7213;SDS011;3648;50.614;13.830;2023-06-22T06:57:29;8.23;;;7.47;;
7213;SDS011;3648;50.614;13.830;2023-06-22T06:59:56;8.03;;;6.90;;
7213;SDS011;3648;50.614;13.830;2023-06-22T07:02:23;8.30;;;7.50;;
7213;SDS011;3648;50.614;13.830;2023-06-22T07:04:51;7.43;;;6.73;;
7213;SDS011;3648;50.614;13.830;2023-06-22T07:07:18;8.20;;;7.27;;
7213;SDS011;3648;50.614;13.830;2023-06-22T07:09:44;6.47;;;5.90;;
7213;SDS011;3648;50.614;13.830;2023-06-22T07:12:13;7.40;;;6.57;;
7213;SDS011;3648;50.614;13.830;2023-06-22T07:14:40;7.27;;;6.57;;
7213;SDS011;3648;50.614;13.830;2023-06-22T07:17:07;7.47;;;6.77;;
7213;SDS011;3648;50.614;13.830;2023-06-22T07:19:34;7.83;;;7.13;;
7213;SDS011;3648;50.614;13.830;2023-06-22T07:22:01;7.53;;;6.73;;
7213;SDS011;3648;50.614;13.830;2023-06-22T07:24:28;6.97;;;6.37;;
7213;SDS011;3648;50.614;13.830;2023-06-22T07:26:55;7.30;;;6.70;;
7213;SDS011;3648;50.614;13.830;2023-06-22T07:29:25;8.57;;;7.47;;
7213;SDS011;3648;50.614;13.830;2023-06-22T07:31:52;7.50;;;6.80;;
7213;SDS011;3648;50.614;13.830;2023-06-22T07:34:21;7.40;;;6.63;;
7213;SDS011;3648;50.614;13.830;2023-06-22T07:36:48;7.93;;;7.13;;
7213;SDS011;3648;50.614;13.830;2023-06-22T07:39:15;8.93;;;7.27;;
7213;SDS011;3648;50.614;13.830;2023-06-22T07:41:42;7.73;;;7.03;;
7213;SDS011;3648;50.614;13.830;2023-06-22T07:44:09;7.70;;;6.90;;
7213;SDS011;3648;50.614;13.830;2023-06-22T07:46:38;8.00;;;7.20;;
7213;SDS011;3648;50.614;13.830;2023-06-22T07:49:05;7.63;;;7.00;;
7213;SDS011;3648;50.614;13.830;2023-06-22T07:51:33;7.73;;;7.03;;
7213;SDS011;3648;50.614;13.830;2023-06-22T07:54:00;7.17;;;6.40;;
7213;SDS011;3648;50.614;13.830;2023-06-22T07:56:27;7.90;;;7.10;;
7213;SDS011;3648;50.614;13.830;2023-06-22T07:58:54;7.80;;;7.10;;
7213;SDS011;3648;50.614;13.830;2023-06-22T08:01:23;8.07;;;7.30;;
7213;SDS011;3648;50.614;13.830;2023-06-22T08:03:52;7.90;;;7.20;;
7213;SDS011;3648;50.614;13.830;2023-06-22T08:06:19;7.60;;;6.90;;
7213;SDS011;3648;50.614;13.830;2023-06-22T08:08:46;7.33;;;6.53;;
7213;SDS011;3648;50.614;13.830;2023-06-22T08:11:14;7.97;;;7.27;;
7213;SDS011;3648;50.614;13.830;2023-06-22T08:13:41;8.00;;;7.30;;
7213;SDS011;3648;50.614;13.830;2023-06-22T08:16:08;7.77;;;7.07;;
7213;SDS011;3648;50.614;13.830;2023-06-22T08:18:35;7.47;;;6.87;;
7213;SDS011;3648;50.614;13.830;2023-06-22T08:21:04;7.93;;;7.27;;
7213;SDS011;3648;50.614;13.830;2023-06-22T08:23:31;8.10;;;7.40;;
7213;SDS011;3648;50.614;13.830;2023-06-22T08:25:57;8.07;;;7.00;;
7213;SDS011;3648;50.614;13.830;2023-06-22T08:28:24;7.90;;;7.20;;
7213;SDS011;3648;50.614;13.830;2023-06-22T08:30:51;7.50;;;6.80;;
7213;SDS011;3648;50.614;13.830;2023-06-22T08:33:20;7.50;;;6.90;;
7213;SDS011;3648;50.614;13.830;2023-06-22T08:35:48;10.40;;;7.37;;
7213;SDS011;3648;50.614;13.830;2023-06-22T08:38:16;8.10;;;7.40;;
7213;SDS011;3648;50.614;13.830;2023-06-22T08:40:43;8.43;;;7.73;;
7213;SDS011;3648;50.614;13.830;2023-06-22T08:43:10;9.87;;;8.00;;
7213;SDS011;3648;50.614;13.830;2023-06-22T08:45:37;8.63;;;7.83;;
7213;SDS011;3648;50.614;13.830;2023-06-22T08:48:04;9.43;;;8.03;;
7213;SDS011;3648;50.614;13.830;2023-06-22T08:50:31;8.23;;;7.50;;
7213;SDS011;3648;50.614;13.830;2023-06-22T08:52:58;8.37;;;7.67;;
7213;SDS011;3648;50.614;13.830;2023-06-22T08:55:27;8.73;;;7.93;;
7213;SDS011;3648;50.614;13.830;2023-06-22T08:57:53;8.63;;;7.93;;
7213;SDS011;3648;50.614;13.830;2023-06-22T09:00:20;8.87;;;8.10;;
7213;SDS011;3648;50.614;13.830;2023-06-22T09:02:48;7.97;;;7.17;;
7213;SDS011;3648;50.614;13.830;2023-06-22T09:05:15;8.93;;;8.10;;
7213;SDS011;3648;50.614;13.830;2023-06-22T09:07:42;7.90;;;7.27;;
7213;SDS011;3648;50.614;13.830;2023-06-22T09:10:09;8.33;;;7.60;;
7213;SDS011;3648;50.614;13.830;2023-06-22T09:12:38;8.23;;;7.53;;
7213;SDS011;3648;50.614;13.830;2023-06-22T09:15:06;10.10;;;8.07;;
7213;SDS011;3648;50.614;13.830;2023-06-22T09:17:33;8.43;;;7.63;;
7213;SDS011;3648;50.614;13.830;2023-06-22T09:20:02;8.63;;;7.90;;
7213;SDS011;3648;50.614;13.830;2023-06-22T09:22:30;7.83;;;7.07;;
7213;SDS011;3648;50.614;13.830;2023-06-22T09:24:58;8.60;;;7.77;;
7213;SDS011;3648;50.614;13.830;2023-06-22T09:27:25;7.37;;;6.77;;
7213;SDS011;3648;50.614;13.830;2023-06-22T09:29:54;8.33;;;7.53;;
7213;SDS011;3648;50.614;13.830;2023-06-22T09:32:23;8.17;;;7.27;;
7213;SDS011;3648;50.614;13.830;2023-06-22T09:34:50;8.97;;;8.07;;
7213;SDS011;3648;50.614;13.830;2023-06-22T09:37:18;7.87;;;7.10;;
7213;SDS011;3648;50.614;13.830;2023-06-22T09:39:45;7.80;;;7.10;;
7213;SDS011;3648;50.614;13.830;2023-06-22T09:42:11;9.00;;;8.10;;
7213;SDS011;3648;50.614;13.830;2023-06-22T09:44:39;8.23;;;7.37;;
7213;SDS011;3648;50.614;13.830;2023-06-22T09:47:07;9.00;;;7.43;;
7213;SDS011;3648;50.614;13.830;2023-06-22T09:49:34;7.70;;;7.00;;
7213;SDS011;3648;50.614;13.830;2023-06-22T09:52:01;7.70;;;6.80;;
7213;SDS011;3648;50.614;13.830;2023-06-22T09:54:29;7.00;;;6.40;;
7213;SDS011;3648;50.614;13.830;2023-06-22T09:56:56;7.23;;;6.53;;
7213;SDS011;3648;50.614;13.830;2023-06-22T09:59:23;7.40;;;6.70;;
7213;SDS011;3648;50.614;13.830;2023-06-22T10:01:49;7.00;;;6.40;;
7213;SDS011;3648;50.614;13.830;2023-06-22T10:04:18;7.67;;;6.20;;
7213;SDS011;3648;50.614;13.830;2023-06-22T10:06:45;7.07;;;6.37;;
7213;SDS011;3648;50.614;13.830;2023-06-22T10:09:12;6.73;;;6.07;;
7213;SDS011;3648;50.614;13.830;2023-06-22T10:11:39;7.17;;;5.93;;
7213;SDS011;3648;50.614;13.830;2023-06-22T10:14:06;6.80;;;6.20;;
7213;SDS011;3648;50.614;13.830;2023-06-22T10:16:33;6.50;;;5.90;;
7213;SDS011;3648;50.614;13.830;2023-06-22T10:19:02;7.10;;;6.33;;
7213;SDS011;3648;50.614;13.830;2023-06-22T10:21:30;6.13;;;5.63;;
7213;SDS011;3648;50.614;13.830;2023-06-22T10:23:58;6.20;;;5.67;;
7213;SDS011;3648;50.614;13.830;2023-06-22T10:26:30;8.40;;;6.03;;
7213;SDS011;3648;50.614;13.830;2023-06-22T10:28:58;6.53;;;5.80;;
7213;SDS011;3648;50.614;13.830;2023-06-22T10:31:25;6.80;;;6.20;;
7213;SDS011;3648;50.614;13.830;2023-06-22T10:33:52;5.80;;;5.40;;
7213;SDS011;3648;50.614;13.830;2023-06-22T10:36:19;6.30;;;5.73;;
7213;SDS011;3648;50.614;13.830;2023-06-22T10:38:48;6.23;;;5.63;;
7213;SDS011;3648;50.614;13.830;2023-06-22T10:41:15;6.37;;;5.80;;
7213;SDS011;3648;50.614;13.830;2023-06-22T10:43:42;6.73;;;6.13;;
7213;SDS011;3648;50.614;13.830;2023-06-22T10:46:09;5.70;;;5.20;;
7213;SDS011;3648;50.614;13.830;2023-06-22T10:48:36;6.30;;;5.80;;
7213;SDS011;3648;50.614;13.830;2023-06-22T10:51:03;5.97;;;5.37;;
7213;SDS011;3648;50.614;13.830;2023-06-22T10:53:30;6.03;;;5.53;;
7213;SDS011;3648;50.614;13.830;2023-06-22T10:55:59;6.53;;;5.57;;
7213;SDS011;3648;50.614;13.830;2023-06-22T10:58:26;5.97;;;5.37;;
7213;SDS011;3648;50.614;13.830;2023-06-22T11:00:53;9.10;;;5.77;;
7213;SDS011;3648;50.614;13.830;2023-06-22T11:03:20;6.13;;;5.63;;
7213;SDS011;3648;50.614;13.830;2023-06-22T11:05:48;6.10;;;5.53;;
7213;SDS011;3648;50.614;13.830;2023-06-22T11:08:15;5.93;;;5.40;;
7213;SDS011;3648;50.614;13.830;2023-06-22T11:10:43;5.73;;;5.23;;
7213;SDS011;3648;50.614;13.830;2023-06-22T11:13:11;6.43;;;5.73;;
7213;SDS011;3648;50.614;13.830;2023-06-22T11:15:39;6.90;;;5.67;;
7213;SDS011;3648;50.614;13.830;2023-06-22T11:18:07;6.07;;;5.57;;
7213;SDS011;3648;50.614;13.830;2023-06-22T11:20:33;6.43;;;5.83;;
7213;SDS011;3648;50.614;13.830;2023-06-22T11:23:03;5.30;;;4.90;;
7213;SDS011;3648;50.614;13.830;2023-06-22T11:25:31;5.87;;;5.37;;
7213;SDS011;3648;50.614;13.830;2023-06-22T11:28:00;6.27;;;5.67;;
7213;SDS011;3648;50.614;13.830;2023-06-22T11:30:29;6.10;;;5.60;;
7213;SDS011;3648;50.614;13.830;2023-06-22T11:32:56;5.40;;;4.90;;
7213;SDS011;3648;50.614;13.830;2023-06-22T11:35:24;5.63;;;5.13;;
7213;SDS011;3648;50.614;13.830;2023-06-22T11:37:52;5.77;;;5.27;;
7213;SDS011;3648;50.614;13.830;2023-06-22T11:40:19;6.07;;;5.30;;
7213;SDS011;3648;50.614;13.830;2023-06-22T11:42:46;6.30;;;5.70;;
7213;SDS011;3648;50.614;13.830;2023-06-22T11:45:13;6.83;;;5.90;;
7213;SDS011;3648;50.614;13.830;2023-06-22T11:47:44;5.67;;;5.13;;
7213;SDS011;3648;50.614;13.830;2023-06-22T11:50:11;5.30;;;4.83;;
7213;SDS011;3648;50.614;13.830;2023-06-22T11:52:38;6.07;;;5.27;;
7213;SDS011;3648;50.614;13.830;2023-06-22T11:55:05;7.67;;;4.90;;
7213;SDS011;3648;50.614;13.830;2023-06-22T11:57:33;6.27;;;5.07;;
7213;SDS011;3648;50.614;13.830;2023-06-22T12:00:01;5.93;;;5.43;;
7213;SDS011;3648;50.614;13.830;2023-06-22T12:02:38;6.30;;;5.70;;
7213;SDS011;3648;50.614;13.830;2023-06-22T12:05:07;5.90;;;5.30;;
7213;SDS011;3648;50.614;13.830;2023-06-22T12:07:34;5.73;;;5.23;;
7213;SDS011;3648;50.614;13.830;2023-06-22T12:10:01;8.27;;;5.33;;
7213;SDS011;3648;50.614;13.830;2023-06-22T12:12:28;6.17;;;5.60;;
7213;SDS011;3648;50.614;13.830;2023-06-22T12:14:55;5.67;;;5.17;;
7213;SDS011;3648;50.614;13.830;2023-06-22T12:17:22;6.20;;;5.60;;
7213;SDS011;3648;50.614;13.830;2023-06-22T12:19:49;5.43;;;4.97;;
7213;SDS011;3648;50.614;13.830;2023-06-22T12:22:17;5.33;;;4.93;;
7213;SDS011;3648;50.614;13.830;2023-06-22T12:24:44;6.20;;;5.60;;
7213;SDS011;3648;50.614;13.830;2023-06-22T12:27:11;5.83;;;5.33;;
7213;SDS011;3648;50.614;13.830;2023-06-22T12:29:41;5.73;;;5.23;;
7213;SDS011;3648;50.614;13.830;2023-06-22T12:32:08;5.73;;;5.23;;
7213;SDS011;3648;50.614;13.830;2023-06-22T12:34:37;5.23;;;4.73;;
7213;SDS011;3648;50.614;13.830;2023-06-22T12:37:05;5.37;;;4.87;;
7213;SDS011;3648;50.614;13.830;2023-06-22T12:39:33;5.13;;;4.63;;
7213;SDS011;3648;50.614;13.830;2023-06-22T12:42:00;5.47;;;4.97;;
7213;SDS011;3648;50.614;13.830;2023-06-22T12:44:27;7.23;;;4.77;;
7213;SDS011;3648;50.614;13.830;2023-06-22T12:46:54;6.00;;;5.10;;
7213;SDS011;3648;50.614;13.830;2023-06-22T12:49:21;5.43;;;4.93;;
7213;SDS011;3648;50.614;13.830;2023-06-22T12:51:48;5.50;;;5.00;;
7213;SDS011;3648;50.614;13.830;2023-06-22T12:54:21;5.67;;;5.17;;
7213;SDS011;3648;50.614;13.830;2023-06-22T12:56:50;5.00;;;4.50;;
7213;SDS011;3648;50.614;13.830;2023-06-22T12:59:17;5.73;;;4.73;;
7213;SDS011;3648;50.614;13.830;2023-06-22T13:01:44;4.77;;;4.33;;
7213;SDS011;3648;50.614;13.830;2023-06-22T13:04:12;5.70;;;4.87;;
7213;SDS011;3648;50.614;13.830;2023-06-22T13:06:40;5.60;;;5.10;;
7213;SDS011;3648;50.614;13.830;2023-06-22T13:09:09;5.53;;;5.03;;
7213;SDS011;3648;50.614;13.830;2023-06-22T13:11:36;6.30;;;5.70;;
7213;SDS011;3648;50.614;13.830;2023-06-22T13:14:05;5.67;;;5.17;;
7213;SDS011;3648;50.614;13.830;2023-06-22T13:16:32;6.23;;;5.63;;
7213;SDS011;3648;50.614;13.830;2023-06-22T13:18:59;6.17;;;5.57;;
7213;SDS011;3648;50.614;13.830;2023-06-22T13:21:26;6.17;;;5.57;;
7213;SDS011;3648;50.614;13.830;2023-06-22T13:23:55;5.60;;;5.07;;
7213;SDS011;3648;50.614;13.830;2023-06-22T13:26:24;6.17;;;5.63;;
7213;SDS011;3648;50.614;13.830;2023-06-22T13:28:53;5.60;;;5.10;;
7213;SDS011;3648;50.614;13.830;2023-06-22T13:31:22;5.60;;;5.10;;
7213;SDS011;3648;50.614;13.830;2023-06-22T13:33:49;5.97;;;5.47;;
7213;SDS011;3648;50.614;13.830;2023-06-22T13:36:17;5.87;;;5.37;;
7213;SDS011;3648;50.614;13.830;2023-06-22T13:38:44;5.37;;;4.80;;
7213;SDS011;3648;50.614;13.830;2023-06-22T13:41:12;7.30;;;5.53;;
7213;SDS011;3648;50.614;13.830;2023-06-22T13:43:39;5.63;;;5.13;;
7213;SDS011;3648;50.614;13.830;2023-06-22T13:46:05;5.00;;;4.60;;
7213;SDS011;3648;50.614;13.830;2023-06-22T13:48:34;4.97;;;4.57;;
7213;SDS011;3648;50.614;13.830;2023-06-22T13:51:01;6.37;;;5.40;;
7213;SDS011;3648;50.614;13.830;2023-06-22T13:53:28;5.23;;;4.73;;
7213;SDS011;3648;50.614;13.830;2023-06-22T13:55:55;6.30;;;5.70;;
7213;SDS011;3648;50.614;13.830;2023-06-22T13:58:22;6.07;;;5.57;;
7213;SDS011;3648;50.614;13.830;2023-06-22T14:00:49;6.13;;;5.37;;
7213;SDS011;3648;50.614;13.830;2023-06-22T14:03:16;6.60;;;5.87;;
7213;SDS011;3648;50.614;13.830;2023-06-22T14:05:44;5.77;;;5.20;;
7213;SDS011;3648;50.614;13.830;2023-06-22T14:08:12;5.90;;;5.20;;
7213;SDS011;3648;50.614;13.830;2023-06-22T14:10:39;6.27;;;5.63;;
7213;SDS011;3648;50.614;13.830;2023-06-22T14:13:06;6.23;;;5.63;;
7213;SDS011;3648;50.614;13.830;2023-06-22T14:15:33;6.53;;;4.83;;
7213;SDS011;3648;50.614;13.830;2023-06-22T14:18:00;6.10;;;5.50;;
7213;SDS011;3648;50.614;13.830;2023-06-22T14:20:27;6.00;;;5.40;;
7213;SDS011;3648;50.614;13.830;2023-06-22T14:22:55;6.17;;;5.57;;
7213;SDS011;3648;50.614;13.830;2023-06-22T14:25:22;6.17;;;5.57;;
7213;SDS011;3648;50.614;13.830;2023-06-22T14:27:49;8.53;;;5.80;;
7213;SDS011;3648;50.614;13.830;2023-06-22T14:30:17;5.73;;;5.30;;
7213;SDS011;3648;50.614;13.830;2023-06-22T14:32:44;6.00;;;5.40;;
7213;SDS011;3648;50.614;13.830;2023-06-22T14:35:11;10.23;;;5.57;;
7213;SDS011;3648;50.614;13.830;2023-06-22T14:37:38;5.83;;;5.23;;
7213;SDS011;3648;50.614;13.830;2023-06-22T14:40:06;5.90;;;5.30;;
7213;SDS011;3648;50.614;13.830;2023-06-22T14:42:34;6.63;;;6.03;;
7213;SDS011;3648;50.614;13.830;2023-06-22T14:45:01;6.03;;;5.43;;
7213;SDS011;3648;50.614;13.830;2023-06-22T14:47:28;5.93;;;5.17;;
7213;SDS011;3648;50.614;13.830;2023-06-22T14:49:55;5.90;;;5.40;;
7213;SDS011;3648;50.614;13.830;2023-06-22T14:52:22;6.23;;;5.53;;
7213;SDS011;3648;50.614;13.830;2023-06-22T14:54:49;6.43;;;5.83;;
7213;SDS011;3648;50.614;13.830;2023-06-22T14:57:19;5.73;;;5.23;;
7213;SDS011;3648;50.614;13.830;2023-06-22T14:59:48;6.73;;;5.00;;
7213;SDS011;3648;50.614;13.830;2023-06-22T15:02:15;8.17;;;5.60;;
7213;SDS011;3648;50.614;13.830;2023-06-22T15:04:42;6.40;;;5.80;;